createdAt,value
2018-09-29T00:09:25.195Z,1017.9
2018-09-29T00:19:27.197Z,1017.9
2018-09-29T00:29:29.031Z,1018
2018-09-29T00:39:32.022Z,1017.9
2018-09-29T00:49:33.505Z,1018
2018-09-29T00:59:35.342Z,1018
2018-09-29T01:09:37.520Z,1018
2018-09-29T01:19:39.231Z,1017.9
2018-09-29T01:29:40.448Z,1017.9
2018-09-29T01:39:42.634Z,1017.9
2018-09-29T01:49:47.344Z,1017.9
2018-09-29T01:59:49.061Z,1018
2018-09-29T02:09:50.754Z,1018
2018-09-29T02:19:52.904Z,1018.1
2018-09-29T02:29:54.496Z,1018
2018-09-29T02:39:55.673Z,1017.9
2018-09-29T02:49:57.661Z,1017.9
2018-09-29T02:59:59.756Z,1017.9
2018-09-29T03:10:01.177Z,1017.9
2018-09-29T03:20:02.504Z,1017.8
2018-09-29T03:30:04.495Z,1017.8
2018-09-29T03:40:06.435Z,1017.8
2018-09-29T03:50:08.487Z,1017.7
2018-09-29T04:00:10.355Z,1017.8
2018-09-29T04:10:12.474Z,1017.8
2018-09-29T04:20:14.380Z,1017.8
2018-09-29T04:40:18.323Z,1018
2018-09-29T04:50:20.541Z,1018
2018-09-29T05:00:22.890Z,1017.9
2018-09-29T05:10:25.092Z,1018
2018-09-29T05:20:27.354Z,1018
2018-09-29T05:30:29.073Z,1018.1
2018-09-29T05:40:31.198Z,1018.2
2018-09-29T05:50:33.764Z,1018.2
2018-09-29T06:00:35.472Z,1018.3
2018-09-29T06:10:37.053Z,1018.2
2018-09-29T06:20:38.875Z,1018.3
2018-09-29T06:30:40.255Z,1018.2
2018-09-29T06:40:42.136Z,1018.3
2018-09-29T06:50:43.685Z,1018.4
2018-09-29T07:00:45.771Z,1018.3
2018-09-29T07:10:47.669Z,1018.3
2018-09-29T07:20:49.679Z,1018.3
2018-09-29T07:30:51.757Z,1018.4
2018-09-29T07:40:53.544Z,1018.4
2018-09-29T07:50:55.832Z,1018.4
2018-09-29T08:00:58.033Z,1018.4
2018-09-29T08:11:00.015Z,1018.3
2018-09-29T08:21:02.025Z,1018.3
2018-09-29T08:31:04.166Z,1018.3
2018-09-29T08:41:06.079Z,1018.2
2018-09-29T08:51:08.228Z,1018.3
2018-09-29T09:01:09.723Z,1018.3
2018-09-29T09:11:11.993Z,1018.3
2018-09-29T09:21:14.279Z,1018.3
2018-09-29T09:31:16.008Z,1018.2
2018-09-29T09:41:17.415Z,1018.1
2018-09-29T09:51:19.616Z,1018.1
2018-09-29T10:01:21.302Z,1018
2018-09-29T10:11:23.394Z,1018
2018-09-29T10:21:25.375Z,1017.8
2018-09-29T10:31:27.256Z,1017.6
2018-09-29T10:41:29.507Z,1017.5
2018-09-29T10:51:31.461Z,1017.4
2018-09-29T11:01:33.252Z,1017.2
2018-09-29T11:11:35.394Z,1017.1
2018-09-29T11:21:37.568Z,1017
2018-09-29T11:31:39.233Z,1016.9
2018-09-29T11:41:41.578Z,1016.7
2018-09-29T12:01:46.460Z,1016.3
2018-09-29T12:11:48.287Z,1016.1
2018-09-29T12:21:50.094Z,1016
2018-09-29T12:31:52.350Z,1015.8
2018-09-29T12:41:55.107Z,1015.7
2018-09-29T12:51:57.312Z,1015.5
2018-09-29T13:01:59.293Z,1015.2
2018-09-29T13:12:01.117Z,1015.2
2018-09-29T13:22:03.023Z,1014.9
2018-09-29T13:32:04.981Z,1014.9
2018-09-29T13:42:06.927Z,1014.7
2018-09-29T13:52:08.799Z,1014.6
2018-09-29T14:02:10.198Z,1014.5
2018-09-29T14:12:12.310Z,1014.4
2018-09-29T14:22:14.761Z,1014.2
2018-09-29T14:32:17.144Z,1014.1
2018-09-29T14:42:18.864Z,1013.9
2018-09-29T14:52:20.568Z,1013.8
2018-09-29T15:02:22.260Z,1013.7
2018-09-29T15:12:24.001Z,1013.5
2018-09-29T15:22:26.214Z,1013.4
2018-09-29T15:32:27.916Z,1013.3
2018-09-29T15:42:30.392Z,1013.1
2018-09-29T15:52:32.121Z,1013
2018-09-29T16:02:33.832Z,1012.9
2018-09-29T16:12:35.781Z,1012.8
2018-09-29T16:22:38.307Z,1012.7
2018-09-29T16:32:40.573Z,1012.6
2018-09-29T16:42:43.049Z,1012.5
2018-09-29T16:52:45.368Z,1012.5
2018-09-29T17:02:46.981Z,1012.6
2018-09-29T17:12:48.846Z,1012.6
2018-09-29T17:22:50.588Z,1012.6
2018-09-29T17:32:52.707Z,1012.7
2018-09-29T17:42:54.273Z,1012.7
2018-09-29T17:52:56.286Z,1012.6
2018-09-29T18:02:57.954Z,1012.5
2018-09-29T18:12:59.829Z,1012.4
2018-09-29T18:23:02.058Z,1012.5
2018-09-29T18:33:03.957Z,1012.3
2018-09-29T18:43:06.793Z,1012.4
2018-09-29T18:53:09.070Z,1012.3
2018-09-29T19:03:10.953Z,1012.3
2018-09-29T19:03:19.911Z,1012.3
2018-09-29T19:13:18.566Z,1012.3
2018-09-29T19:23:21.120Z,1012.3
2018-09-29T19:33:23.680Z,1012.3
2018-09-29T19:43:25.680Z,1012.2
2018-09-29T19:53:27.933Z,1012
2018-09-29T20:03:29.785Z,1011.9
2018-09-29T20:13:31.837Z,1011.8
2018-09-29T20:23:34.079Z,1011.7
2018-09-29T20:33:36.124Z,1011.7
2018-09-29T20:43:37.937Z,1011.6
2018-09-29T20:53:39.799Z,1011.5
2018-09-29T21:03:42.062Z,1011.5
2018-09-29T21:13:44.077Z,1011.4
2018-09-29T21:23:46.109Z,1011.3
2018-09-29T21:33:48.002Z,1011.1
2018-09-29T21:43:49.986Z,1010.9
2018-09-29T21:53:51.484Z,1010.8
2018-09-29T22:03:53.472Z,1010.8
2018-09-29T22:13:55.138Z,1010.8
2018-09-29T22:23:56.685Z,1010.7
2018-09-29T22:33:58.945Z,1010.6
2018-09-29T22:44:01.255Z,1010.5
2018-09-29T22:54:02.956Z,1010.4
2018-09-29T23:04:04.119Z,1010.4
2018-09-29T23:14:06.429Z,1010.3
2018-09-29T23:24:08.272Z,1010.3
2018-09-29T23:44:13.739Z,1010
2018-09-29T23:54:15.714Z,1010
